createdAt,value
2018-02-16T00:00:47.276Z,41.5
2018-02-16T00:01:55.956Z,41.79
2018-02-16T00:03:04.897Z,41.6
2018-02-16T00:04:14.376Z,41.79
2018-02-16T00:05:23.324Z,41.79
2018-02-16T00:06:32.000Z,41.79
2018-02-16T00:07:40.943Z,41.79
2018-02-16T00:08:49.888Z,41.79
2018-02-16T00:09:58.826Z,41.79
2018-02-16T00:11:07.510Z,41.79
2018-02-16T00:12:16.454Z,41.6
2018-02-16T00:13:25.132Z,41.89
2018-02-16T00:14:33.810Z,41.6
2018-02-16T00:15:43.285Z,41.5
2018-02-16T00:16:51.965Z,41.79
2018-02-16T00:18:01.182Z,41.5
2018-02-16T00:19:10.126Z,41.7
2018-02-16T00:20:18.803Z,41.6
2018-02-16T00:21:28.009Z,41.6
2018-02-16T00:22:36.956Z,41.5
2018-02-16T00:23:46.162Z,41.5
2018-02-16T00:24:55.107Z,41.6
2018-02-16T00:26:03.783Z,41.5
2018-02-16T00:27:12.728Z,41.79
2018-02-16T00:28:21.402Z,41.6
2018-02-16T00:29:30.079Z,41.41
2018-02-16T00:30:39.024Z,41.7
2018-02-16T00:31:47.967Z,41.41
2018-02-16T00:32:56.907Z,41.41
2018-02-16T00:34:06.123Z,41.5
2018-02-16T00:35:15.340Z,41.5
2018-02-16T00:36:24.277Z,41.5
2018-02-16T00:37:32.950Z,41.31
2018-02-16T00:38:41.894Z,41.31
2018-02-16T00:39:51.111Z,41.31
2018-02-16T00:40:59.791Z,41.22
2018-02-16T00:42:08.736Z,41.5
2018-02-16T00:43:17.411Z,41.41
2018-02-16T00:44:26.086Z,41.31
2018-02-16T00:45:35.568Z,41.5
2018-02-16T00:46:44.507Z,41.31
2018-02-16T00:47:53.182Z,41.31
2018-02-16T00:49:02.124Z,41.6
2018-02-16T00:50:11.068Z,41.31
2018-02-16T00:51:19.749Z,41.41
2018-02-16T00:52:28.698Z,41.31
2018-02-16T00:53:37.376Z,41.31
2018-02-16T00:54:46.319Z,41.31
2018-02-16T00:55:54.998Z,41.41
2018-02-16T00:57:03.672Z,41.41
2018-02-16T00:58:12.353Z,41.41
2018-02-16T00:59:21.031Z,41.31
2018-02-16T01:00:29.714Z,41.5
2018-02-16T01:01:38.667Z,41.6
2018-02-16T01:02:47.613Z,41.5
2018-02-16T01:03:56.557Z,41.41
2018-02-16T01:05:06.041Z,41.5
2018-02-16T01:06:14.717Z,41.22
2018-02-16T01:07:23.397Z,41.41
2018-02-16T01:08:32.348Z,41.31
2018-02-16T01:09:41.556Z,41.31
2018-02-16T01:10:50.234Z,41.41
2018-02-16T01:11:59.180Z,41.6
2018-02-16T01:13:07.853Z,41.5
2018-02-16T01:14:16.795Z,41.5
2018-02-16T01:15:25.474Z,41.41
2018-02-16T01:16:34.154Z,41.5
2018-02-16T01:17:42.834Z,41.31
2018-02-16T01:18:51.509Z,41.22
2018-02-16T01:20:00.191Z,41.5
2018-02-16T01:21:08.868Z,41.31
2018-02-16T01:22:17.545Z,41.22
2018-02-16T01:23:26.486Z,41.5
2018-02-16T01:24:35.704Z,41.5
2018-02-16T01:25:44.640Z,41.31
2018-02-16T01:26:53.318Z,41.31
2018-02-16T01:28:02.000Z,41.22
2018-02-16T01:29:10.675Z,41.5
2018-02-16T01:30:19.355Z,41.41
2018-02-16T01:31:28.299Z,41.41
2018-02-16T01:32:37.245Z,41.31
2018-02-16T01:33:47.010Z,41.12
2018-02-16T01:34:55.690Z,41.12
2018-02-16T01:36:05.167Z,41.12
2018-02-16T01:37:13.848Z,41.12
2018-02-16T01:38:22.523Z,41.12
2018-02-16T01:39:32.265Z,41.22
2018-02-16T01:40:40.943Z,41.22
2018-02-16T01:41:50.155Z,41.12
2018-02-16T01:42:59.100Z,41.22
2018-02-16T01:44:07.777Z,41.12
2018-02-16T01:45:16.718Z,41.12
2018-02-16T01:46:25.396Z,41.31
2018-02-16T01:47:34.337Z,41.02
2018-02-16T01:48:43.281Z,41.12
2018-02-16T01:49:51.955Z,41.22
2018-02-16T01:51:00.636Z,41.02
2018-02-16T01:52:09.581Z,41.41
2018-02-16T01:53:18.258Z,41.02
2018-02-16T01:54:27.465Z,41.12
2018-02-16T01:55:36.407Z,41.02
2018-02-16T01:56:45.345Z,41.31
2018-02-16T01:57:54.294Z,41.31
2018-02-16T01:59:02.971Z,41.22
2018-02-16T02:00:11.910Z,41.22
2018-02-16T02:01:21.117Z,41.31
2018-02-16T02:02:29.798Z,41.31
2018-02-16T02:03:39.006Z,40.93
2018-02-16T02:04:48.214Z,41.31
2018-02-16T02:05:57.160Z,41.41
2018-02-16T02:07:06.103Z,41.22
2018-02-16T02:08:15.049Z,41.12
2018-02-16T02:09:23.730Z,40.93
2018-02-16T02:10:32.405Z,40.93
2018-02-16T02:11:41.083Z,41.1
2018-02-16T02:12:50.028Z,41.22
2018-02-16T02:13:59.512Z,40.93
2018-02-16T02:15:08.724Z,41.12
2018-02-16T02:16:17.678Z,41.22
2018-02-16T02:17:26.356Z,41.12
2018-02-16T02:18:35.297Z,41.22
2018-02-16T02:19:44.505Z,41.12
2018-02-16T02:20:53.454Z,41.12
2018-02-16T02:22:02.661Z,41.12
2018-02-16T02:23:11.607Z,41.12
2018-02-16T02:24:20.551Z,41.1
2018-02-16T02:25:29.493Z,41.12
2018-02-16T02:26:38.170Z,41.02
2018-02-16T02:27:46.845Z,41.22
2018-02-16T02:28:55.786Z,41.12
2018-02-16T02:30:04.735Z,41.2
2018-02-16T02:31:13.953Z,41
2018-02-16T02:32:22.624Z,41
2018-02-16T02:33:31.571Z,41.1
2018-02-16T02:34:41.053Z,41.12
2018-02-16T02:35:50.264Z,41.12
2018-02-16T02:36:59.209Z,41
2018-02-16T02:38:08.164Z,41.1
2018-02-16T02:39:17.116Z,41.02
2018-02-16T02:40:26.332Z,41.1
2018-02-16T02:41:35.555Z,41.1
2018-02-16T02:42:44.500Z,41.1
2018-02-16T02:43:53.714Z,41.31
2018-02-16T02:45:02.919Z,41
2018-02-16T02:46:12.131Z,41.31
2018-02-16T02:47:20.806Z,40.91
2018-02-16T02:48:30.546Z,41.1
2018-02-16T02:49:40.018Z,41.2
2018-02-16T02:50:48.972Z,41.29
2018-02-16T02:51:57.915Z,41.2
2018-02-16T02:53:06.597Z,41
2018-02-16T02:54:15.808Z,40.83
2018-02-16T02:55:24.753Z,41.2
2018-02-16T02:56:34.227Z,41.2
2018-02-16T02:57:43.711Z,41.1
2018-02-16T02:58:52.653Z,41
2018-02-16T03:00:01.859Z,40.73
2018-02-16T03:01:10.802Z,40.72
2018-02-16T03:02:20.281Z,40.73
2018-02-16T03:03:30.022Z,41.1
2018-02-16T03:04:39.768Z,40.83
2018-02-16T03:05:48.714Z,40.91
2018-02-16T03:06:57.921Z,40.81
2018-02-16T03:08:06.878Z,41.12
2018-02-16T03:09:15.821Z,41.1
2018-02-16T03:10:24.500Z,40.81
2018-02-16T03:11:33.442Z,40.91
2018-02-16T03:12:42.390Z,41.1
2018-02-16T03:13:51.062Z,40.91
2018-02-16T03:15:00.021Z,41.12
2018-02-16T03:16:08.987Z,41.12
2018-02-16T03:17:17.932Z,41.2
2018-02-16T03:18:26.924Z,41.29
2018-02-16T03:19:35.598Z,41.12
2018-02-16T03:20:44.542Z,41.2
2018-02-16T03:21:53.750Z,41.12
2018-02-16T03:23:02.428Z,41.12
2018-02-16T03:24:11.105Z,41.1
2018-02-16T03:25:19.780Z,41.12
2018-02-16T03:26:28.723Z,41.1
2018-02-16T03:27:37.930Z,41.2
2018-02-16T03:28:46.608Z,41.12
2018-02-16T03:29:55.285Z,41.1
2018-02-16T03:31:04.512Z,40.62
2018-02-16T03:32:13.462Z,41.12
2018-02-16T03:33:22.411Z,41.2
2018-02-16T03:34:31.357Z,41.1
2018-02-16T03:35:40.302Z,41.1
2018-02-16T03:36:48.981Z,41.1
2018-02-16T03:37:57.924Z,41.12
2018-02-16T03:39:07.134Z,41.2
2018-02-16T03:40:16.079Z,41.12
2018-02-16T03:41:24.755Z,41.1
2018-02-16T03:42:33.436Z,41.1
2018-02-16T03:43:42.108Z,41.1
2018-02-16T03:44:50.785Z,41.2
2018-02-16T03:45:59.464Z,41.1
2018-02-16T03:47:08.675Z,41.1
2018-02-16T03:48:17.622Z,41.2
2018-02-16T03:49:26.299Z,41.2
2018-02-16T03:50:34.977Z,41.1
2018-02-16T03:51:43.926Z,41.1
2018-02-16T03:52:52.870Z,41.12
2018-02-16T03:54:01.548Z,41.29
2018-02-16T03:55:10.493Z,41.2
2018-02-16T03:56:19.445Z,41.2
2018-02-16T03:57:28.665Z,41.2
2018-02-16T03:58:37.621Z,41.2
2018-02-16T03:59:47.113Z,41.2
2018-02-16T04:00:56.338Z,41.1
2018-02-16T04:02:05.034Z,41.2
2018-02-16T04:03:13.980Z,41.2
2018-02-16T04:04:22.666Z,41.2
2018-02-16T04:05:31.620Z,41.1
2018-02-16T04:06:40.838Z,41.2
2018-02-16T04:07:49.788Z,41.1
2018-02-16T04:08:58.746Z,41.2
2018-02-16T04:10:07.966Z,41.1
2018-02-16T04:11:16.918Z,41
2018-02-16T04:12:25.603Z,41.1
2018-02-16T04:13:34.313Z,41
2018-02-16T04:14:42.977Z,41.2
2018-02-16T04:15:51.934Z,41.1
2018-02-16T04:17:01.156Z,41.1
2018-02-16T04:18:09.843Z,41
2018-02-16T04:19:19.063Z,41
2018-02-16T04:20:28.017Z,41
2018-02-16T04:21:37.238Z,41.1
2018-02-16T04:22:45.928Z,41.1
2018-02-16T04:23:54.614Z,41
2018-02-16T04:25:03.568Z,41.1
2018-02-16T04:26:12.523Z,41
2018-02-16T04:27:21.211Z,41
2018-02-16T04:28:30.164Z,41.29
2018-02-16T04:29:38.849Z,41.1
2018-02-16T04:30:47.805Z,41.2
2018-02-16T04:31:56.757Z,41.29
2018-02-16T04:33:05.708Z,41.2
2018-02-16T04:34:14.401Z,41.2
2018-02-16T04:35:23.612Z,41
2018-02-16T04:36:32.832Z,41
2018-02-16T04:37:41.789Z,41.2
2018-02-16T04:38:50.742Z,41.2
2018-02-16T04:39:59.698Z,41.29
2018-02-16T04:41:08.386Z,40.91
2018-02-16T04:42:17.072Z,41
2018-02-16T04:43:26.353Z,41
2018-02-16T04:44:35.314Z,41.2
2018-02-16T04:45:44.269Z,41.1
2018-02-16T04:46:53.753Z,41.1
2018-02-16T04:48:02.711Z,40.91
2018-02-16T04:49:11.658Z,40.91
2018-02-16T04:50:20.343Z,41.1
2018-02-16T04:51:29.029Z,40.91
2018-02-16T04:52:38.250Z,40.91
2018-02-16T04:53:47.473Z,41
2018-02-16T04:54:56.964Z,41
2018-02-16T04:56:05.649Z,41
2018-02-16T04:57:14.606Z,41
2018-02-16T04:58:23.557Z,41.1
2018-02-16T04:59:32.507Z,41
2018-02-16T05:00:42.261Z,41
2018-02-16T05:01:51.210Z,41.1
2018-02-16T05:02:59.897Z,41.1
2018-02-16T05:04:08.845Z,41.1
2018-02-16T05:05:17.822Z,40.81
2018-02-16T05:06:26.774Z,41
2018-02-16T05:07:35.730Z,41
2018-02-16T05:08:44.420Z,41
2018-02-16T05:09:53.369Z,41
2018-02-16T05:11:02.620Z,41.1
2018-02-16T05:12:11.305Z,41
2018-02-16T05:13:20.260Z,41.1
2018-02-16T05:14:28.956Z,41.1
2018-02-16T05:15:38.178Z,41
2018-02-16T05:16:47.662Z,41.1
2018-02-16T05:17:56.614Z,41
2018-02-16T05:19:05.562Z,41.2
2018-02-16T05:20:14.513Z,41
2018-02-16T05:21:23.198Z,41.1
2018-02-16T05:22:32.158Z,41.1
2018-02-16T05:23:40.847Z,41.2
2018-02-16T05:24:50.331Z,41.2
2018-02-16T05:25:59.292Z,41.1
2018-02-16T05:27:07.980Z,41.2
2018-02-16T05:28:16.937Z,41.2
2018-02-16T05:29:25.892Z,41.12
2018-02-16T05:30:34.844Z,41.2
2018-02-16T05:31:43.533Z,41.31
2018-02-16T05:32:52.221Z,41.22
2018-02-16T05:34:01.439Z,41.1
2018-02-16T05:35:10.129Z,41.12
2018-02-16T05:36:18.819Z,41.22
2018-02-16T05:37:27.771Z,41.1
2018-02-16T05:38:36.988Z,41.12
2018-02-16T05:39:45.675Z,41.22
2018-02-16T05:40:54.630Z,41.12
2018-02-16T05:42:03.587Z,41.22
2018-02-16T05:43:12.812Z,41.22
2018-02-16T05:44:21.765Z,40.93
2018-02-16T05:45:30.452Z,41.22
2018-02-16T05:46:39.940Z,41.22
2018-02-16T05:47:48.893Z,41.02
2018-02-16T05:48:58.384Z,40.73
2018-02-16T05:50:07.872Z,41.22
2018-02-16T05:51:17.092Z,41.12
2018-02-16T05:52:26.044Z,41.22
2018-02-16T05:53:35.262Z,41.22
2018-02-16T05:54:44.488Z,40.45
2018-02-16T05:55:53.707Z,40.73
2018-02-16T05:57:02.663Z,41.22
2018-02-16T05:58:11.618Z,41.22
2018-02-16T05:59:20.303Z,41.12
2018-02-16T06:00:28.990Z,41.02
2018-02-16T06:01:37.944Z,41.12
2018-02-16T06:02:47.165Z,40.83
2018-02-16T06:03:55.851Z,41.12
2018-02-16T06:05:04.853Z,41.31
2018-02-16T06:06:14.341Z,41.31
2018-02-16T06:07:23.567Z,41.7
2018-02-16T06:08:32.331Z,41.79
2018-02-16T06:09:41.284Z,41.7
2018-02-16T06:10:50.245Z,41.41
2018-02-16T06:11:59.463Z,41.89
2018-02-16T06:13:08.151Z,41.5
2018-02-16T06:14:17.102Z,42.08
2018-02-16T06:15:25.792Z,42.18
2018-02-16T06:16:34.745Z,42.56
2018-02-16T06:17:43.701Z,42.56
2018-02-16T06:18:52.385Z,42.56
2018-02-16T06:20:01.608Z,42.94
2018-02-16T06:21:10.828Z,42.47
2018-02-16T06:22:19.516Z,42.56
2018-02-16T06:23:28.207Z,42.37
2018-02-16T06:24:36.899Z,42.85
2018-02-16T06:25:45.600Z,42.76
2018-02-16T06:26:54.554Z,42.66
2018-02-16T06:28:03.239Z,43.14
2018-02-16T06:29:12.196Z,43.52
2018-02-16T06:30:20.887Z,42.66
2018-02-16T06:31:29.843Z,43.23
2018-02-16T06:32:39.063Z,43.04
2018-02-16T06:33:48.021Z,42.76
2018-02-16T06:34:56.972Z,43.33
2018-02-16T06:36:05.921Z,43.23
2018-02-16T06:37:14.877Z,43.33
2018-02-16T06:38:23.561Z,43.23
2018-02-16T06:39:32.780Z,43.52
2018-02-16T06:40:42.259Z,43.52
2018-02-16T06:41:50.946Z,43.71
2018-02-16T06:43:00.165Z,43.91
2018-02-16T06:44:09.120Z,43.52
2018-02-16T06:45:18.076Z,43.62
2018-02-16T06:46:27.834Z,43.62
2018-02-16T06:47:36.790Z,43.71
2018-02-16T06:48:45.480Z,43.71
2018-02-16T06:49:54.967Z,43.91
2018-02-16T06:51:04.186Z,43.52
2018-02-16T06:52:13.147Z,43.81
2018-02-16T06:53:22.101Z,43.71
2018-02-16T06:54:30.790Z,43.62
2018-02-16T06:55:39.480Z,43.43
2018-02-16T06:56:48.168Z,43.71
2018-02-16T06:57:56.855Z,43.81
2018-02-16T06:59:05.809Z,43.52
2018-02-16T07:00:15.028Z,43.52
2018-02-16T07:01:23.719Z,43.52
2018-02-16T07:02:32.403Z,43.62
2018-02-16T07:03:41.086Z,43.62
2018-02-16T07:04:50.040Z,43.71
2018-02-16T07:05:58.997Z,43.23
2018-02-16T07:07:07.948Z,43.33
2018-02-16T07:08:17.443Z,43.33
2018-02-16T07:09:26.130Z,43.14
2018-02-16T07:10:35.084Z,43.14
2018-02-16T07:11:44.574Z,43.43
2018-02-16T07:12:53.524Z,43.33
2018-02-16T07:14:02.212Z,43.04
2018-02-16T07:15:10.896Z,42.94
2018-02-16T07:16:19.582Z,43.04
2018-02-16T07:17:28.578Z,43.14
2018-02-16T07:18:37.535Z,43.14
2018-02-16T07:19:47.022Z,43.04
2018-02-16T07:20:55.707Z,42.66
2018-02-16T07:22:04.668Z,42.94
2018-02-16T07:23:13.888Z,43.14
2018-02-16T07:24:22.580Z,42.85
2018-02-16T07:25:31.526Z,42.76
2018-02-16T07:26:40.213Z,42.94
2018-02-16T07:27:49.708Z,43.04
2018-02-16T07:28:58.395Z,43.04
2018-02-16T07:30:07.347Z,43.23
2018-02-16T07:31:16.033Z,42.94
2018-02-16T07:32:24.718Z,42.94
2018-02-16T07:33:33.940Z,42.76
2018-02-16T07:34:42.890Z,42.94
2018-02-16T07:35:51.576Z,42.94
2018-02-16T07:37:00.263Z,42.85
2018-02-16T07:38:08.951Z,42.76
2018-02-16T07:39:17.902Z,42.94
2018-02-16T07:40:26.859Z,42.94
2018-02-16T07:41:36.081Z,43.14
2018-02-16T07:42:45.576Z,42.94
2018-02-16T07:43:54.264Z,42.94
2018-02-16T07:45:03.220Z,42.94
2018-02-16T07:46:11.909Z,42.94
2018-02-16T07:47:20.861Z,42.85
2018-02-16T07:48:29.547Z,42.76
2018-02-16T07:49:39.049Z,42.85
2018-02-16T07:51:00.729Z,42.76
2018-02-16T07:52:09.416Z,42.85
2018-02-16T07:53:18.642Z,42.85
2018-02-16T07:54:27.860Z,42.76
2018-02-16T07:55:36.546Z,43.14
2018-02-16T07:56:45.497Z,43.04
2018-02-16T07:57:54.449Z,43.14
2018-02-16T07:59:03.668Z,43.04
2018-02-16T08:00:12.890Z,42.94
2018-02-16T08:01:22.119Z,42.94
2018-02-16T08:02:30.809Z,42.94
2018-02-16T08:03:39.498Z,42.94
2018-02-16T08:04:48.455Z,43.04
2018-02-16T08:05:57.404Z,42.47
2018-02-16T08:07:06.359Z,42.76
2018-02-16T08:08:15.309Z,42.76
2018-02-16T08:09:24.265Z,42.85
2018-02-16T08:10:32.954Z,42.76
2018-02-16T08:11:41.906Z,42.76
2018-02-16T08:12:51.397Z,42.85
2018-02-16T08:14:00.620Z,42.66
2018-02-16T08:15:09.572Z,42.76
2018-02-16T08:16:18.255Z,42.56
2018-02-16T08:17:27.211Z,42.76
2018-02-16T08:18:36.166Z,42.47
2018-02-16T08:19:45.122Z,42.76
2018-02-16T08:20:54.342Z,42.56
2018-02-16T08:22:03.294Z,42.76
2018-02-16T08:23:12.253Z,42.37
2018-02-16T08:24:20.941Z,42.56
2018-02-16T08:25:30.428Z,42.66
2018-02-16T08:26:39.118Z,42.37
2018-02-16T08:27:48.074Z,42.56
2018-02-16T08:28:56.766Z,42.27
2018-02-16T08:30:05.723Z,42.37
2018-02-16T08:31:14.684Z,42.66
2018-02-16T08:32:23.370Z,42.47
2018-02-16T08:33:32.590Z,42.47
2018-02-16T08:34:41.276Z,42.37
2018-02-16T08:35:49.967Z,42.37
2018-02-16T08:36:58.654Z,42.37
2018-02-16T08:38:08.140Z,42.37
2018-02-16T08:39:16.829Z,42.56
2018-02-16T08:40:25.785Z,42.47
2018-02-16T08:41:34.740Z,42.56
2018-02-16T08:42:43.427Z,42.56
2018-02-16T08:43:52.116Z,42.66
2018-02-16T08:45:01.068Z,42.47
2018-02-16T08:46:09.755Z,42.37
2018-02-16T08:47:18.439Z,42.37
2018-02-16T08:48:27.663Z,42.47
2018-02-16T08:49:36.348Z,42.37
2018-02-16T08:50:45.039Z,42.47
2018-02-16T08:51:53.988Z,42.56
2018-02-16T08:53:02.940Z,42.47
2018-02-16T08:54:12.168Z,42.47
2018-02-16T08:55:20.849Z,42.37
2018-02-16T08:56:29.535Z,42.37
2018-02-16T08:57:38.494Z,42.66
2018-02-16T08:58:47.710Z,42.56
2018-02-16T08:59:56.665Z,42.56
2018-02-16T09:01:05.620Z,42.56
2018-02-16T09:02:14.842Z,42.37
2018-02-16T09:03:23.530Z,42.47
2018-02-16T09:04:32.481Z,42.37
2018-02-16T09:05:41.169Z,42.37
2018-02-16T09:06:50.125Z,42.37
2018-02-16T09:07:58.834Z,42.37
2018-02-16T09:09:08.324Z,42.37
2018-02-16T09:10:17.276Z,42.56
2018-02-16T09:11:25.964Z,42.47
2018-02-16T09:12:34.658Z,42.47
2018-02-16T09:13:43.345Z,42.47
2018-02-16T09:14:52.565Z,42.56
2018-02-16T09:16:01.255Z,42.47
2018-02-16T09:17:09.944Z,42.76
2018-02-16T09:18:18.898Z,42.76
2018-02-16T09:19:27.583Z,42.76
2018-02-16T09:20:36.537Z,42.47
2018-02-16T09:21:45.227Z,42.37
2018-02-16T09:22:54.718Z,42.76
2018-02-16T09:24:03.673Z,42.56
2018-02-16T09:25:12.630Z,42.56
2018-02-16T09:26:21.317Z,42.76
2018-02-16T09:27:30.269Z,42.37
2018-02-16T09:28:38.959Z,42.76
2018-02-16T09:29:47.914Z,42.47
2018-02-16T09:30:56.600Z,42.76
2018-02-16T09:32:05.289Z,42.76
2018-02-16T09:33:13.976Z,42.66
2018-02-16T09:34:22.931Z,42.47
2018-02-16T09:35:31.888Z,42.76
2018-02-16T09:36:40.839Z,42.76
2018-02-16T09:37:50.056Z,42.76
2018-02-16T09:38:59.011Z,42.76
2018-02-16T09:40:07.697Z,42.76
2018-02-16T09:41:16.384Z,42.76
2018-02-16T09:42:25.336Z,42.85
2018-02-16T09:43:34.552Z,42.94
2018-02-16T09:44:43.509Z,42.66
2018-02-16T09:45:52.467Z,42.94
2018-02-16T09:47:01.685Z,42.66
2018-02-16T09:48:10.637Z,42.76
2018-02-16T09:49:19.324Z,42.37
2018-02-16T09:50:28.010Z,42.94
2018-02-16T09:51:36.972Z,42.94
2018-02-16T09:52:46.198Z,42.66
2018-02-16T09:53:55.152Z,42.76
2018-02-16T09:55:04.104Z,42.94
2018-02-16T09:56:13.060Z,42.76
2018-02-16T09:57:22.357Z,42.56
2018-02-16T09:58:30.971Z,42.56
2018-02-16T09:59:39.660Z,42.56
2018-02-16T10:00:48.619Z,42.47
2018-02-16T10:01:57.309Z,42.37
2018-02-16T10:03:05.999Z,42.56
2018-02-16T10:04:14.956Z,42.37
2018-02-16T10:05:24.182Z,42.56
2018-02-16T10:06:33.138Z,42.18
2018-02-16T10:07:41.826Z,42.56
2018-02-16T10:08:50.517Z,42.47
2018-02-16T10:09:59.470Z,42.56
2018-02-16T10:11:08.155Z,42.37
2018-02-16T10:12:16.841Z,42.08
2018-02-16T10:13:25.793Z,42.56
2018-02-16T10:14:34.479Z,42.18
2018-02-16T10:15:43.171Z,42.37
2018-02-16T10:16:51.857Z,42.18
2018-02-16T10:18:00.811Z,42.08
2018-02-16T10:19:09.497Z,41.99
2018-02-16T10:20:18.182Z,42.08
2018-02-16T10:21:27.135Z,42.18
2018-02-16T10:22:36.091Z,42.18
2018-02-16T10:23:44.776Z,41.99
2018-02-16T10:24:53.730Z,42.08
2018-02-16T10:26:02.686Z,42.18
2018-02-16T10:27:11.375Z,41.99
2018-02-16T10:28:20.327Z,42.37
2018-02-16T10:29:29.286Z,42.08
2018-02-16T10:30:38.243Z,42.27
2018-02-16T10:31:46.932Z,42.18
2018-02-16T10:32:55.620Z,42.18
2018-02-16T10:34:04.575Z,41.89
2018-02-16T10:35:13.261Z,41.99
2018-02-16T10:36:22.253Z,41.79
2018-02-16T10:37:31.209Z,41.99
2018-02-16T10:38:39.895Z,41.99
2018-02-16T10:39:49.114Z,41.79
2018-02-16T10:40:58.063Z,41.7
2018-02-16T10:42:07.017Z,41.5
2018-02-16T10:43:15.704Z,41.99
2018-02-16T10:44:24.656Z,41.99
2018-02-16T10:45:33.342Z,41.99
2018-02-16T10:46:42.302Z,41.91
2018-02-16T10:47:51.531Z,41.99
2018-02-16T10:49:00.216Z,41.79
2018-02-16T10:50:09.436Z,41.91
2018-02-16T10:51:18.121Z,42
2018-02-16T10:52:27.345Z,41.89
2018-02-16T10:53:36.303Z,41.82
2018-02-16T10:54:44.986Z,41.7
2018-02-16T10:55:53.941Z,41.72
2018-02-16T10:57:02.898Z,41.62
2018-02-16T10:58:12.118Z,42
2018-02-16T10:59:20.809Z,41.7
2018-02-16T11:00:29.759Z,41.91
2018-02-16T11:01:38.712Z,41.79
2018-02-16T11:02:48.210Z,41.82
2018-02-16T11:03:57.169Z,41.82
2018-02-16T11:05:06.122Z,41.7
2018-02-16T11:06:15.089Z,41.91
2018-02-16T11:07:23.781Z,41.72
2018-02-16T11:08:32.468Z,41.91
2018-02-16T11:09:41.157Z,41.53
2018-02-16T11:10:50.107Z,41.72
2018-02-16T11:11:58.792Z,41.62
2018-02-16T11:13:07.744Z,41.53
2018-02-16T11:14:16.705Z,41.43
2018-02-16T11:15:25.656Z,41.53
2018-02-16T11:16:34.343Z,41.43
2018-02-16T11:17:43.031Z,41.14
2018-02-16T11:18:52.253Z,41.33
2018-02-16T11:20:01.210Z,41.33
2018-02-16T11:21:10.431Z,41.43
2018-02-16T11:22:19.386Z,41.33
2018-02-16T11:23:28.073Z,41.53
2018-02-16T11:24:36.762Z,41.43
2018-02-16T11:25:45.722Z,41.72
2018-02-16T11:26:54.676Z,41.24
2018-02-16T11:28:03.363Z,41.53
2018-02-16T11:29:12.047Z,41.24
2018-02-16T11:30:21.000Z,41.43
2018-02-16T11:31:29.954Z,41.53
2018-02-16T11:32:38.640Z,41.24
2018-02-16T11:33:47.601Z,41.43
2018-02-16T11:34:57.355Z,41.33
2018-02-16T11:36:06.307Z,41.43
2018-02-16T11:37:15.529Z,41.43
2018-02-16T11:38:24.484Z,41.43
2018-02-16T11:39:33.708Z,41.33
2018-02-16T11:40:42.670Z,41.33
2018-02-16T11:41:51.622Z,41.43
2018-02-16T11:43:00.312Z,41.24
2018-02-16T11:44:09.269Z,41.33
2018-02-16T11:45:17.958Z,41.43
2018-02-16T11:46:26.911Z,41.45
2018-02-16T11:47:35.601Z,41.43
2018-02-16T11:48:44.288Z,41.16
2018-02-16T11:49:53.245Z,41.06
2018-02-16T11:51:02.200Z,41.06
2018-02-16T11:52:11.684Z,41.14
2018-02-16T11:53:20.906Z,41.24
2018-02-16T11:54:29.591Z,41.14
2018-02-16T11:55:38.542Z,41.06
2018-02-16T11:56:47.779Z,41.35
2018-02-16T11:57:56.732Z,41.26
2018-02-16T11:59:05.686Z,41.45
2018-02-16T12:00:14.378Z,41.06
2018-02-16T12:01:23.330Z,41.26
2018-02-16T12:02:32.549Z,41.06
2018-02-16T12:03:41.771Z,41.06
2018-02-16T12:04:50.995Z,41.35
2018-02-16T12:06:00.212Z,40.97
2018-02-16T12:07:09.170Z,41.06
2018-02-16T12:08:18.126Z,40.97
2018-02-16T12:09:27.085Z,40.97
2018-02-16T12:10:36.841Z,40.97
2018-02-16T12:11:45.793Z,41.35
2018-02-16T12:12:55.012Z,41.16
2018-02-16T12:14:04.502Z,41.06
2018-02-16T12:15:13.725Z,41.16
2018-02-16T12:16:22.418Z,41.55
2018-02-16T12:17:31.104Z,41.35
2018-02-16T12:18:39.792Z,41.64
2018-02-16T12:19:48.751Z,41.45
2018-02-16T12:20:57.450Z,41.45
2018-02-16T12:22:06.201Z,41.35
2018-02-16T12:23:15.192Z,41.35
2018-02-16T12:24:24.148Z,41.45
2018-02-16T12:25:33.371Z,41.26
2018-02-16T12:26:42.321Z,41.45
2018-02-16T12:27:51.005Z,41.35
2018-02-16T12:28:59.696Z,41.26
2018-02-16T12:30:08.380Z,41.45
2018-02-16T12:31:17.068Z,41.35
2018-02-16T12:32:26.296Z,41.55
2018-02-16T12:33:35.249Z,41.35
2018-02-16T12:34:44.476Z,41.35
2018-02-16T12:35:53.431Z,41.45
2018-02-16T12:37:02.118Z,41.45
2018-02-16T12:38:11.075Z,41.45
2018-02-16T12:39:20.028Z,41.26
2018-02-16T12:40:28.984Z,41.35
2018-02-16T12:41:37.941Z,41.55
2018-02-16T12:42:47.179Z,41.35
2018-02-16T12:43:56.394Z,41.55
2018-02-16T12:45:05.348Z,41.35
2018-02-16T12:46:14.573Z,41.35
2018-02-16T12:47:23.795Z,41.55
2018-02-16T12:48:32.480Z,41.35
2018-02-16T12:49:41.773Z,41.45
2018-02-16T12:50:50.460Z,41.45
2018-02-16T12:51:59.150Z,41.26
2018-02-16T12:53:08.100Z,41.62
2018-02-16T12:54:16.790Z,41.55
2018-02-16T12:55:25.476Z,41.83
2018-02-16T12:56:34.167Z,41.45
2018-02-16T12:57:43.120Z,41.35
2018-02-16T12:58:52.080Z,41.45
2018-02-16T13:00:00.771Z,41.35
2018-02-16T13:01:09.453Z,41.35
2018-02-16T13:02:18.142Z,41.74
2018-02-16T13:03:27.366Z,41.74
2018-02-16T13:04:36.320Z,41.45
2018-02-16T13:05:45.016Z,41.83
2018-02-16T13:06:54.236Z,41.64
2018-02-16T13:08:02.927Z,41.64
2018-02-16T13:09:11.615Z,41.64
2018-02-16T13:10:20.572Z,41.74
2018-02-16T13:11:29.528Z,41.55
2018-02-16T13:12:38.757Z,41.83
2018-02-16T13:13:47.983Z,41.83
2018-02-16T13:14:56.671Z,41.82
2018-02-16T13:16:05.359Z,41.83
2018-02-16T13:17:14.312Z,41.74
2018-02-16T13:18:23.272Z,41.91
2018-02-16T13:19:32.242Z,41.72
2018-02-16T13:20:41.178Z,41.74
2018-02-16T13:21:50.134Z,41.64
2018-02-16T13:22:59.088Z,41.83
2018-02-16T13:24:07.776Z,41.74
2018-02-16T13:25:16.464Z,41.82
2018-02-16T13:26:25.419Z,41.74
2018-02-16T13:27:34.448Z,41.74
2018-02-16T13:28:43.404Z,41.62
2018-02-16T13:29:52.092Z,41.64
2018-02-16T13:31:01.087Z,41.91
2018-02-16T13:32:10.043Z,41.72
2018-02-16T13:33:18.997Z,41.72
2018-02-16T13:34:27.950Z,41.82
2018-02-16T13:35:36.638Z,40.49
2018-02-16T13:36:45.327Z,40.37
2018-02-16T13:37:54.282Z,40.08
2018-02-16T13:39:02.968Z,40.28
2018-02-16T13:40:11.925Z,40.18
2018-02-16T13:41:20.614Z,41.22
2018-02-16T13:42:29.571Z,41.24
2018-02-16T13:43:38.524Z,41.33
2018-02-16T13:44:47.478Z,41.33
2018-02-16T13:45:56.431Z,41.33
2018-02-16T13:47:05.383Z,41.43
2018-02-16T13:48:14.068Z,41.72
2018-02-16T13:49:23.022Z,41.72
2018-02-16T13:50:31.710Z,41.62
2018-02-16T13:51:40.401Z,41.43
2018-02-16T13:52:49.093Z,41.82
2018-02-16T13:53:58.586Z,41.72
2018-02-16T13:55:07.539Z,41.72
2018-02-16T13:56:16.224Z,41.72
2018-02-16T13:57:24.911Z,41.62
2018-02-16T13:58:33.598Z,41.72
2018-02-16T13:59:42.559Z,41.82
2018-02-16T14:00:51.507Z,41.72
2018-02-16T14:02:00.555Z,41.72
2018-02-16T14:03:09.239Z,41.72
2018-02-16T14:04:18.464Z,41.72
2018-02-16T14:05:27.420Z,41.72
2018-02-16T14:06:36.108Z,41.72
2018-02-16T14:07:44.796Z,41.62
2018-02-16T14:08:54.020Z,41.72
2018-02-16T14:10:02.744Z,41.72
2018-02-16T14:11:11.936Z,41.82
2018-02-16T14:12:20.889Z,41.72
2018-02-16T14:13:30.106Z,41.62
2018-02-16T14:14:39.057Z,41.72
2018-02-16T14:15:47.748Z,41.91
2018-02-16T14:16:56.436Z,41.72
2018-02-16T14:18:05.390Z,41.62
2018-02-16T14:19:14.076Z,41.91
2018-02-16T14:20:23.297Z,41.82
2018-02-16T14:21:31.984Z,41.53
2018-02-16T14:22:40.670Z,41.82
2018-02-16T14:23:49.692Z,41.62
2018-02-16T14:24:58.649Z,41.53
2018-02-16T14:26:07.878Z,41.05
2018-02-16T14:27:16.836Z,41.33
2018-02-16T14:28:25.522Z,40.95
2018-02-16T14:29:34.473Z,41.33
2018-02-16T14:30:43.977Z,41.91
2018-02-16T14:31:53.008Z,41.62
2018-02-16T14:33:01.967Z,41.82
2018-02-16T14:34:11.195Z,41.82
2018-02-16T14:35:19.880Z,41.82
2018-02-16T14:36:28.574Z,41.62
2018-02-16T14:37:38.065Z,41.82
2018-02-16T14:38:47.297Z,41.91
2018-02-16T14:39:56.791Z,41.91
2018-02-16T14:41:05.751Z,42
2018-02-16T14:42:14.444Z,42.2
2018-02-16T14:43:23.394Z,42.3
2018-02-16T14:44:32.084Z,42
2018-02-16T14:45:41.303Z,42
2018-02-16T14:46:50.261Z,42.2
2018-02-16T14:47:59.216Z,42.2
2018-02-16T14:49:08.441Z,42.2
2018-02-16T14:50:17.394Z,42.1
2018-02-16T14:51:26.084Z,42.1
2018-02-16T14:52:35.033Z,42.3
2018-02-16T14:53:43.993Z,42.2
2018-02-16T14:54:52.991Z,42.2
2018-02-16T14:56:01.680Z,42.1
2018-02-16T14:57:10.366Z,41.91